Time;durP1;ratioP1;P1;durP2;ratioP2;P2;SDS_P1;SDS_P2;PMS_P1;PMS_P2;Temp;Humidity;BMP_temperature;BMP_pressure;BME280_temperature;BME280_humidity;BME280_pressure;Samples;Min_cycle;Max_cycle;Signal;HPM_P1;HPM_P2
2021/12/31 00:01:11;;;;;;;;;9.00;9.00;;;;;13.17;79.49;101526.56;5056463;28;45328;-62
2021/12/31 00:03:36;;;;;;;;;9.67;9.67;;;;;13.17;79.94;101526.56;5055859;28;45457;-69
2021/12/31 00:06:02;;;;;;;;;9.67;9.67;;;;;13.14;79.81;101521.38;5056673;28;45249;-69
2021/12/31 00:08:27;;;;;;;;;8.00;8.00;;;;;13.12;80.31;101523.25;5056155;28;46579;-64
2021/12/31 00:10:59;;;;;;;;;11.67;10.33;;;;;13.10;79.75;101525.16;5056180;28;45319;-66
2021/12/31 00:13:25;;;;;;;;;9.33;8.00;;;;;13.11;79.92;101521.53;5039266;28;45401;-61
2021/12/31 00:15:51;;;;;;;;;10.67;8.33;;;;;13.04;79.79;101517.47;5056132;28;45734;-65
2021/12/31 00:18:16;;;;;;;;;8.00;8.00;;;;;13.04;79.94;101522.81;5055480;28;46340;-63
2021/12/31 00:20:42;;;;;;;;;10.67;5.33;;;;;13.03;79.92;101521.09;5037847;28;45890;-66
2021/12/31 00:23:10;;;;;;;;;12.33;8.33;;;;;13.01;80.31;101510.44;5055934;28;45444;-68
2021/12/31 00:25:38;;;;;;;;;13.33;12.00;;;;;12.95;80.48;101513.44;5056456;28;45618;-63
2021/12/31 00:28:04;;;;;;;;;11.00;8.00;;;;;12.96;80.32;101502.69;5055877;28;46227;-61
2021/12/31 00:30:30;;;;;;;;;8.00;8.00;;;;;12.95;80.29;101505.44;5037695;28;45868;-63
2021/12/31 00:32:56;;;;;;;;;14.00;12.33;;;;;12.85;79.78;101494.34;5037664;28;45300;-65
2021/12/31 00:35:22;;;;;;;;;11.00;9.67;;;;;12.87;80.05;101496.94;5055015;28;45497;-64
2021/12/31 00:37:48;;;;;;;;;11.67;10.00;;;;;12.83;79.68;101490.91;5055962;28;45709;-66
2021/12/31 00:40:16;;;;;;;;;13.33;11.33;;;;;12.85;80.12;101499.69;5055901;28;45296;-58
2021/12/31 00:42:42;;;;;;;;;8.00;7.33;;;;;12.88;80.13;101502.19;5037725;28;45419;-66
2021/12/31 00:45:11;;;;;;;;;15.33;12.67;;;;;12.87;79.64;101519.16;5055670;28;45449;-68
2021/12/31 00:47:37;;;;;;;;;12.33;11.00;;;;;12.88;79.82;101515.56;5036692;28;45770;-67
2021/12/31 00:50:04;;;;;;;;;10.00;10.00;;;;;12.88;79.81;101515.56;5054521;28;45308;-60
2021/12/31 00:52:29;;;;;;;;;9.00;9.00;;;;;12.84;79.86;101508.66;5056014;28;45512;-56
2021/12/31 00:54:54;;;;;;;;;10.00;10.00;;;;;12.86;79.54;101509.44;5055832;28;45280;-63
2021/12/31 00:57:20;;;;;;;;;11.67;10.00;;;;;12.81;79.77;101500.81;5054947;28;46311;-65
2021/12/31 00:59:46;;;;;;;;;10.00;8.33;;;;;12.86;79.64;101509.44;5037497;28;45387;-63
2021/12/31 01:02:12;;;;;;;;;13.00;10.00;;;;;12.81;79.25;101500.81;5055500;28;45406;-62
2021/12/31 01:04:39;;;;;;;;;10.67;8.00;;;;;12.81;79.17;101498.13;5055275;28;45515;-60
2021/12/31 01:07:04;;;;;;;;;13.00;11.67;;;;;12.82;79.05;101504.34;5054606;28;46113;-64
2021/12/31 01:09:31;;;;;;;;;12.67;10.00;;;;;12.83;79.66;101506.06;5055258;28;45200;-68
2021/12/31 01:11:57;;;;;;;;;7.00;7.00;;;;;12.80;79.54;101499.09;5055463;28;45258;-62
2021/12/31 01:14:32;;;;;;;;;12.67;12.33;;;;;12.76;79.15;101489.50;5037453;28;45508;-63
2021/12/31 01:17:02;;;;;;;;;13.00;11.33;;;;;12.76;79.43;101494.84;5054198;28;46092;-60
2021/12/31 01:19:45;;;;;;;;;13.67;10.33;;;;;12.76;79.45;101499.28;5055138;28;45324;-60
2021/12/31 01:22:24;;;;;;;;;17.00;9.33;;;;;12.74;79.33;101499.38;5045804;28;45367;-57
2021/12/31 01:24:50;;;;;;;;;10.67;9.00;;;;;12.73;79.35;101494.13;5044123;28;45236;-55
2021/12/31 01:27:16;;;;;;;;;13.33;10.67;;;;;12.69;79.05;101485.41;5044248;28;45961;-53
2021/12/31 01:29:42;;;;;;;;;10.33;9.00;;;;;12.69;79.05;101472.06;5045101;28;45185;-56
2021/12/31 01:32:08;;;;;;;;;10.33;9.00;;;;;12.64;78.84;101479.47;5043225;28;45405;-54
2021/12/31 01:34:34;;;;;;;;;4.67;2.00;;;;;12.65;78.68;101475.84;5026840;28;45308;-61
2021/12/31 01:37:00;;;;;;;;;13.00;11.33;;;;;12.66;78.65;101496.25;5046269;28;46541;-65
2021/12/31 01:39:27;;;;;;;;;13.67;12.00;;;;;12.63;79.02;101499.03;5042914;28;45274;-70
2021/12/31 01:41:56;;;;;;;;;14.67;10.00;;;;;12.60;79.11;101507.22;5052303;28;45452;-74
2021/12/31 01:44:23;;;;;;;;;13.00;9.00;;;;;12.56;78.99;101506.50;5043764;28;45532;-70
2021/12/31 01:46:53;;;;;;;;;10.67;9.33;;;;;12.58;79.25;101512.63;5044066;28;45711;-55
2021/12/31 01:49:21;;;;;;;;;9.00;9.00;;;;;12.59;79.20;101519.69;5045207;28;45415;-60
2021/12/31 01:51:46;;;;;;;;;11.33;10.67;;;;;12.57;78.66;101526.06;5048579;28;45245;-55
2021/12/31 01:54:12;;;;;;;;;13.33;12.00;;;;;12.59;78.64;101519.69;5055078;28;45221;-59
2021/12/31 01:56:37;;;;;;;;;20.67;12.67;;;;;12.59;78.63;101509.03;5045082;28;46230;-58
2021/12/31 01:59:06;;;;;;;;;7.67;7.00;;;;;12.57;78.42;101510.03;5025668;28;45279;-61
2021/12/31 02:01:32;;;;;;;;;11.33;10.00;;;;;12.56;78.86;101511.00;5043771;28;45520;-64
2021/12/31 02:03:59;;;;;;;;;10.67;9.00;;;;;12.59;78.32;101513.50;5027278;28;45524;-57
2021/12/31 02:06:25;;;;;;;;;13.00;12.33;;;;;12.56;78.16;101511.00;5044005;28;45416;-59
2021/12/31 02:08:50;;;;;;;;;15.67;12.67;;;;;12.59;77.91;101509.03;5045182;28;45254;-55
2021/12/31 02:11:17;;;;;;;;;12.33;9.33;;;;;12.57;78.18;101504.72;5046596;28;45256;-52
2021/12/31 02:13:42;;;;;;;;;13.00;12.67;;;;;12.56;78.07;101497.66;5046942;28;45405;-53
2021/12/31 02:16:09;;;;;;;;;13.67;13.67;;;;;12.56;77.84;101492.31;5030206;28;45265;-59
2021/12/31 02:18:35;;;;;;;;;15.33;13.67;;;;;12.52;77.65;101488.94;5028530;28;45651;-58
2021/12/31 02:21:03;;;;;;;;;10.00;8.67;;;;;12.49;77.51;101491.72;5046847;28;45416;-56
2021/12/31 02:23:37;;;;;;;;;12.67;9.00;;;;;12.51;77.58;101494.34;5047669;28;45502;-57
2021/12/31 02:26:03;;;;;;;;;13.33;13.33;;;;;12.48;77.32;101495.34;5028288;28;46295;-63
2021/12/31 02:28:28;;;;;;;;;15.00;11.67;;;;;12.46;77.50;101489.22;5047983;28;45346;-58
2021/12/31 02:31:00;;;;;;;;;11.00;9.00;;;;;12.43;77.23;101491.19;5046396;28;45431;-62
2021/12/31 02:33:25;;;;;;;;;13.33;10.33;;;;;12.43;77.27;101491.19;5046754;28;45331;-64
2021/12/31 02:35:51;;;;;;;;;8.00;8.00;;;;;12.41;77.40;101491.28;5047609;28;46311;-59
2021/12/31 02:38:16;;;;;;;;;13.33;12.00;;;;;12.43;77.08;101480.53;5046432;28;45312;-61
2021/12/31 02:40:42;;;;;;;;;8.00;8.00;;;;;12.38;77.08;101484.28;5048821;28;45985;-57
2021/12/31 02:43:07;;;;;;;;;9.00;9.00;;;;;12.37;76.78;101477.22;5046207;28;46389;-56
2021/12/31 02:45:36;;;;;;;;;9.67;9.00;;;;;12.37;77.15;101471.91;5047518;28;45594;-57
2021/12/31 02:48:04;;;;;;;;;13.67;12.00;;;;;12.36;77.15;101470.13;5047018;28;45425;-57
2021/12/31 02:50:35;;;;;;;;;12.00;10.00;;;;;12.37;76.73;101463.03;5047943;28;45600;-59
2021/12/31 02:53:22;;;;;;;;;9.33;7.67;;;;;12.36;76.90;101458.59;5046958;28;45290;-56
2021/12/31 02:55:59;;;;;;;;;10.67;10.67;;;;;12.34;76.94;101450.69;5031463;28;46089;-55
2021/12/31 02:58:25;;;;;;;;;8.33;8.00;;;;;12.30;76.91;101457.13;5046654;28;45456;-58
2021/12/31 03:00:50;;;;;;;;;7.67;7.67;;;;;12.27;76.84;101449.28;5045431;28;45438;-56
2021/12/31 03:03:17;;;;;;;;;12.00;9.67;;;;;12.31;76.53;101450.84;5047372;28;45458;-50
2021/12/31 03:05:44;;;;;;;;;12.00;12.00;;;;;12.27;76.51;101449.28;5046666;28;46211;-56
2021/12/31 03:08:11;;;;;;;;;8.00;8.00;;;;;12.28;76.72;101453.66;5045296;28;45386;-55
2021/12/31 03:10:39;;;;;;;;;10.33;8.67;;;;;12.28;76.90;101455.47;5030603;28;45497;-50
2021/12/31 03:13:06;;;;;;;;;10.00;8.33;;;;;12.23;76.56;101447.66;5045775;28;45476;-57
2021/12/31 03:15:32;;;;;;;;;8.00;6.33;;;;;12.23;76.15;101453.00;5046984;28;46646;-58
2021/12/31 03:18:02;;;;;;;;;7.00;7.00;;;;;12.20;75.83;101469.16;5046394;28;45443;-55
2021/12/31 03:20:36;;;;;;;;;9.33;7.00;;;;;12.16;75.96;101472.94;5044991;28;45344;-56
2021/12/31 03:23:05;;;;;;;;;9.00;6.00;;;;;12.15;75.66;101481.88;5046244;28;45366;-54
2021/12/31 03:25:31;;;;;;;;;4.00;3.00;;;;;12.18;75.58;101487.06;5048058;28;45469;-55
2021/12/31 03:27:57;;;;;;;;;4.00;4.00;;;;;12.17;75.64;101498.66;5028205;28;45420;-59
2021/12/31 03:30:22;;;;;;;;;6.00;6.00;;;;;12.18;75.93;101507.53;5046103;28;46619;-62
2021/12/31 03:32:48;;;;;;;;;7.00;6.33;;;;;12.15;75.88;101513.88;5047371;28;45486;-62
2021/12/31 03:35:13;;;;;;;;;4.67;4.67;;;;;12.15;75.35;101513.00;5045300;28;45526;-60
2021/12/31 03:37:39;;;;;;;;;7.33;6.00;;;;;12.16;75.65;101520.06;5028104;28;45458;-55
2021/12/31 03:40:05;;;;;;;;;6.00;6.00;;;;;12.17;75.40;101517.31;5028570;28;45565;-59
2021/12/31 03:42:31;;;;;;;;;4.00;4.00;;;;;12.14;75.73;101501.47;5046815;28;45506;-56
2021/12/31 03:44:57;;;;;;;;;5.00;4.00;;;;;12.14;75.28;101492.63;5045614;28;47430;-60
2021/12/31 03:47:22;;;;;;;;;7.00;7.00;;;;;12.14;75.21;101477.47;5045469;28;45423;-60
2021/12/31 03:49:47;;;;;;;;;6.67;6.67;;;;;12.13;75.40;101473.09;5047151;28;45581;-55
2021/12/31 03:52:13;;;;;;;;;6.67;5.33;;;;;12.09;75.34;101471.50;5046083;28;45457;-59
2021/12/31 03:54:38;;;;;;;;;12.33;4.67;;;;;12.10;75.43;101467.88;5045939;28;46186;-60
2021/12/31 03:57:04;;;;;;;;;5.33;5.33;;;;;12.08;75.46;101469.75;5028548;28;45440;-62
2021/12/31 03:59:29;;;;;;;;;10.33;6.33;;;;;12.04;75.48;101462.84;5046807;28;45308;-55
2021/12/31 04:01:55;;;;;;;;;6.00;6.00;;;;;12.04;75.31;101455.72;5045183;28;45586;-59
2021/12/31 04:04:20;;;;;;;;;7.00;7.00;;;;;12.04;75.43;101452.19;5045751;28;46531;-56
2021/12/31 04:06:46;;;;;;;;;7.00;7.00;;;;;12.01;75.25;101455.88;5045106;28;46148;-53
2021/12/31 04:09:11;;;;;;;;;8.00;8.00;;;;;12.00;75.63;101447.97;5044452;28;46300;-61
2021/12/31 04:11:37;;;;;;;;;6.00;4.00;;;;;11.99;75.54;101443.56;5028328;28;45398;-60
2021/12/31 04:14:02;;;;;;;;;9.00;7.67;;;;;11.98;75.75;101425.81;5046618;28;46139;-54
2021/12/31 04:16:27;;;;;;;;;7.33;5.33;;;;;11.93;75.52;101434.03;5046758;28;45463;-58
2021/12/31 04:18:53;;;;;;;;;6.33;6.00;;;;;11.90;75.54;101450.19;5043716;28;45324;-61
2021/12/31 04:21:20;;;;;;;;;6.00;6.00;;;;;11.96;75.11;101463.22;5045360;28;45343;-65
2021/12/31 04:24:04;;;;;;;;;4.67;4.67;;;;;11.96;75.38;101444.56;5026329;28;45457;-62
2021/12/31 04:26:30;;;;;;;;;8.33;7.00;;;;;11.94;75.42;101445.56;5046642;28;45371;-52
2021/12/31 04:28:56;;;;;;;;;5.00;4.67;;;;;11.92;75.75;101426.13;5047631;28;45279;-62
2021/12/31 04:31:21;;;;;;;;;6.33;6.00;;;;;11.93;75.69;101430.53;5045238;28;45319;-58
2021/12/31 04:33:47;;;;;;;;;5.33;5.33;;;;;11.91;75.57;101430.59;5043831;28;46014;-53
2021/12/31 04:36:12;;;;;;;;;9.00;6.00;;;;;11.91;75.55;101430.59;5045992;28;45877;-59
2021/12/31 04:38:38;;;;;;;;;7.00;4.67;;;;;11.90;75.50;101423.53;5026851;28;45237;-55
2021/12/31 04:41:03;;;;;;;;;8.00;4.00;;;;;11.88;75.52;101419.22;5026902;28;45563;-54
2021/12/31 04:43:29;;;;;;;;;6.00;6.00;;;;;11.89;75.42;101420.94;5048261;28;46512;-58
2021/12/31 04:45:54;;;;;;;;;4.00;4.00;;;;;11.88;75.38;101413.91;5027843;28;45565;-57
2021/12/31 04:48:20;;;;;;;;;8.00;4.67;;;;;11.88;75.34;101419.22;5045028;28;45517;-60
2021/12/31 04:50:45;;;;;;;;;3.33;3.33;;;;;11.87;75.48;101422.84;5027541;28;45341;-57
2021/12/31 04:53:11;;;;;;;;;8.00;7.00;;;;;11.86;75.79;101426.44;5045770;28;46045;-59
2021/12/31 04:55:36;;;;;;;;;6.67;6.67;;;;;11.85;75.72;101427.34;5042848;28;45476;-56
2021/12/31 04:58:01;;;;;;;;;3.67;3.67;;;;;11.86;75.68;101437.09;5045139;28;45380;-56
2021/12/31 05:00:27;;;;;;;;;6.00;6.00;;;;;11.86;75.61;101431.78;5029700;28;45696;-60
2021/12/31 05:02:53;;;;;;;;;6.33;6.00;;;;;11.81;75.75;101430.16;5043505;28;45363;-56
2021/12/31 05:05:18;;;;;;;;;6.33;6.33;;;;;11.80;75.49;101444.44;5044950;28;45821;-56
2021/12/31 05:07:43;;;;;;;;;6.00;6.00;;;;;11.72;75.94;101441.25;5045383;28;46550;-57
2021/12/31 05:10:09;;;;;;;;;6.33;6.33;;;;;11.75;75.79;101446.44;5043926;28;45645;-55
2021/12/31 05:12:37;;;;;;;;;7.67;7.67;;;;;11.72;75.72;101435.06;5045691;28;45485;-55
2021/12/31 05:15:09;;;;;;;;;7.67;7.00;;;;;11.70;75.80;101437.78;5028382;28;45426;-63
2021/12/31 05:17:35;;;;;;;;;6.67;6.67;;;;;11.71;75.90;101434.16;5044278;28;45345;-57
2021/12/31 05:20:02;;;;;;;;;7.33;7.33;;;;;11.68;75.51;101436.97;5044990;28;45571;-57
2021/12/31 05:22:27;;;;;;;;;8.33;6.00;;;;;11.67;75.59;101431.72;5044949;28;46638;-65
2021/12/31 05:24:52;;;;;;;;;6.00;6.00;;;;;11.66;75.97;101419.34;5043268;28;45504;-58
2021/12/31 05:27:18;;;;;;;;;7.00;4.00;;;;;11.69;75.66;101429.84;5026736;28;45258;-60
2021/12/31 05:29:43;;;;;;;;;6.00;6.00;;;;;11.63;76.01;101436.34;5044612;28;45542;-61
2021/12/31 05:32:08;;;;;;;;;7.00;7.00;;;;;11.66;76.01;101438.84;5045401;28;45419;-55
2021/12/31 05:34:34;;;;;;;;;10.00;6.67;;;;;11.64;75.39;101421.22;5043627;28;45464;-62
2021/12/31 05:36:59;;;;;;;;;7.33;7.00;;;;;11.61;75.91;101411.59;5044607;28;45364;-61
2021/12/31 05:39:25;;;;;;;;;7.33;7.00;;;;;11.61;75.87;101416.03;5045243;28;45256;-58
2021/12/31 05:41:51;;;;;;;;;7.67;7.67;;;;;11.60;75.81;101415.19;5043022;28;45442;-55
2021/12/31 05:44:16;;;;;;;;;8.67;6.00;;;;;11.60;75.93;101401.88;5047292;28;45525;-56
2021/12/31 05:46:45;;;;;;;;;8.00;8.00;;;;;11.57;75.72;101399.31;5030040;28;45911;-56
2021/12/31 05:49:10;;;;;;;;;5.33;3.67;;;;;11.57;76.11;101391.31;5048947;28;45513;-57
2021/12/31 05:51:36;;;;;;;;;6.67;6.67;;;;;11.57;76.00;101393.13;5046757;28;47681;-63
2021/12/31 05:54:01;;;;;;;;;7.33;6.00;;;;;11.58;75.96;101382.41;5047733;28;45453;-64
2021/12/31 05:56:26;;;;;;;;;6.00;4.67;;;;;11.51;76.08;101381.84;5048358;28;45875;-64
2021/12/31 05:58:52;;;;;;;;;4.00;4.00;;;;;11.50;76.03;101384.59;5046840;28;45432;-58
2021/12/31 06:01:17;;;;;;;;;6.67;6.67;;;;;11.48;76.13;101383.78;5048593;28;46249;-62
2021/12/31 06:03:43;;;;;;;;;8.00;6.00;;;;;11.52;76.10;101396.88;5047165;28;45567;-53
2021/12/31 06:06:08;;;;;;;;;3.00;3.00;;;;;11.52;76.05;101412.00;5048512;28;45553;-59
2021/12/31 06:08:34;;;;;;;;;6.00;6.00;;;;;11.49;76.10;101401.50;5046927;28;45462;-52
2021/12/31 06:10:59;;;;;;;;;9.33;7.67;;;;;11.49;76.27;101410.34;5047515;28;45441;-56
2021/12/31 06:13:24;;;;;;;;;12.00;7.67;;;;;11.50;76.42;101424.53;5047707;28;45238;-56
2021/12/31 06:15:57;;;;;;;;;7.00;7.00;;;;;11.52;75.90;101428.00;5046504;28;45259;-55
2021/12/31 06:18:22;;;;;;;;;5.67;5.33;;;;;11.53;75.69;101432.38;5049353;28;45552;-59
2021/12/31 06:20:48;;;;;;;;;6.67;6.67;;;;;11.51;75.95;101436.91;5046338;28;45783;-59
2021/12/31 06:23:13;;;;;;;;;7.00;6.00;;;;;11.52;76.31;101425.31;5048386;28;45264;-57
2021/12/31 06:25:39;;;;;;;;;6.67;6.67;;;;;11.50;76.18;101416.53;5047136;28;45252;-59
2021/12/31 06:28:04;;;;;;;;;5.33;5.33;;;;;11.50;76.18;101413.88;5029208;28;45386;-55
2021/12/31 06:30:30;;;;;;;;;6.33;6.33;;;;;11.53;75.77;101419.91;5048267;28;45610;-65
2021/12/31 06:32:56;;;;;;;;;7.00;7.00;;;;;11.55;76.06;101418.97;5028002;28;45507;-57
2021/12/31 06:35:21;;;;;;;;;8.33;7.00;;;;;11.51;76.18;101418.28;5047071;28;45477;-61
2021/12/31 06:37:48;;;;;;;;;8.00;6.33;;;;;11.51;75.85;101418.28;5047772;28;45491;-61
2021/12/31 06:40:14;;;;;;;;;6.00;4.00;;;;;11.49;75.79;101404.16;5030257;28;46193;-61
2021/12/31 06:42:40;;;;;;;;;11.33;7.00;;;;;11.52;76.17;101406.69;5029603;28;45440;-53
2021/12/31 06:45:06;;;;;;;;;7.00;5.33;;;;;11.55;75.96;101403.00;5047805;28;45465;-55
2021/12/31 06:47:33;;;;;;;;;3.67;3.67;;;;;11.56;76.18;101423.38;5047938;28;45622;-59
2021/12/31 06:49:58;;;;;;;;;7.67;6.67;;;;;11.51;75.88;101426.25;5046839;28;45426;-54
2021/12/31 06:52:24;;;;;;;;;4.00;4.00;;;;;11.49;76.00;101433.47;5048120;28;45526;-58
2021/12/31 06:54:49;;;;;;;;;9.00;7.00;;;;;11.52;76.18;101438.66;5047926;28;45312;-51
2021/12/31 06:57:15;;;;;;;;;9.33;6.67;;;;;11.52;75.88;101433.31;5045825;28;45289;-53
2021/12/31 06:59:40;;;;;;;;;8.00;7.00;;;;;11.51;75.67;101415.59;5028768;28;46360;-54
2021/12/31 07:02:06;;;;;;;;;7.33;6.33;;;;;11.47;76.14;101393.59;5049158;28;45430;-56
2021/12/31 07:04:32;;;;;;;;;8.00;6.33;;;;;11.43;76.34;101407.09;5045896;28;45497;-60
2021/12/31 07:06:57;;;;;;;;;7.00;6.00;;;;;11.42;76.32;101430.19;5047663;28;45354;-53
2021/12/31 07:09:23;;;;;;;;;9.33;6.00;;;;;11.41;76.40;101435.59;5046539;28;45308;-61
2021/12/31 07:11:48;;;;;;;;;7.33;7.00;;;;;11.41;76.35;101430.28;5045732;28;45361;-63
2021/12/31 07:14:14;;;;;;;;;9.00;7.00;;;;;11.38;76.52;101438.41;5047163;28;45414;-62
2021/12/31 07:16:39;;;;;;;;;6.00;6.00;;;;;11.39;76.18;101454.31;5048065;28;45458;-60
2021/12/31 07:19:05;;;;;;;;;8.67;7.67;;;;;11.38;76.44;101431.28;5045814;28;45946;-64
2021/12/31 07:21:30;;;;;;;;;8.00;6.33;;;;;11.37;76.07;101429.56;5046897;28;45546;-62
2021/12/31 07:23:56;;;;;;;;;6.00;6.00;;;;;11.40;75.94;101447.19;5045663;28;45137;-63
2021/12/31 07:26:21;;;;;;;;;6.33;6.33;;;;;11.34;75.99;101471.47;5046623;28;45258;-64
2021/12/31 07:28:46;;;;;;;;;9.67;8.00;;;;;11.33;76.12;101475.94;5046683;28;46370;-59
2021/12/31 07:31:14;;;;;;;;;9.00;7.00;;;;;11.32;76.21;101465.31;5044757;28;45582;-58
2021/12/31 07:33:40;;;;;;;;;8.33;8.33;;;;;11.37;76.36;101466.84;5048404;28;45309;-61
2021/12/31 07:36:06;;;;;;;;;6.33;6.33;;;;;11.36;76.10;101469.59;5045868;28;45587;-62
2021/12/31 07:38:34;;;;;;;;;12.00;8.67;;;;;11.38;76.32;101462.38;5046801;28;46229;-59
2021/12/31 07:41:01;;;;;;;;;12.33;10.33;;;;;11.40;76.36;101449.88;5028029;28;45416;-65
2021/12/31 07:43:26;;;;;;;;;4.00;4.00;;;;;11.44;75.73;101448.78;5045370;28;45469;-62
2021/12/31 07:45:53;;;;;;;;;7.00;7.00;;;;;11.44;76.14;101446.13;5046880;28;45725;-58
2021/12/31 07:48:19;;;;;;;;;8.67;7.00;;;;;11.44;76.23;101438.13;5046267;28;46309;-55
2021/12/31 07:50:45;;;;;;;;;4.00;4.00;;;;;11.46;75.85;101436.28;5046715;28;45495;-62
2021/12/31 07:53:11;;;;;;;;;7.00;7.00;;;;;11.43;75.98;101431.06;5046914;28;45493;-53
2021/12/31 07:55:36;;;;;;;;;10.67;7.00;;;;;11.43;76.08;101426.59;5027135;28;45647;-55
2021/12/31 07:58:03;;;;;;;;;9.67;7.67;;;;;11.46;76.13;101446.94;5045520;28;45992;-59
2021/12/31 08:00:28;;;;;;;;;8.00;6.00;;;;;11.44;76.01;101438.97;5046468;28;45492;-61
2021/12/31 08:02:55;;;;;;;;;7.33;6.33;;;;;11.48;75.96;101439.72;5044558;28;45402;-57
2021/12/31 08:05:22;;;;;;;;;8.00;8.00;;;;;11.47;76.04;101456.66;5046934;28;45417;-58
2021/12/31 08:07:47;;;;;;;;;6.33;6.33;;;;;11.51;75.71;101464.41;5044831;28;45332;-56
2021/12/31 08:10:12;;;;;;;;;9.00;7.33;;;;;11.49;75.81;101473.41;5046797;28;45339;-59
2021/12/31 08:12:38;;;;;;;;;9.00;9.00;;;;;11.55;75.50;101457.13;5036754;28;45309;-63
2021/12/31 08:15:05;;;;;;;;;11.00;11.00;;;;;11.59;75.70;101487.16;5018619;28;45700;-61
2021/12/31 08:17:31;;;;;;;;;12.00;8.00;;;;;11.60;75.79;101488.91;5035833;28;45282;-58
2021/12/31 08:19:56;;;;;;;;;11.00;8.00;;;;;11.61;75.35;101495.97;5048597;28;45581;-61
2021/12/31 08:22:22;;;;;;;;;9.00;9.00;;;;;11.61;75.64;101488.84;5038046;28;45835;-62
2021/12/31 08:24:47;;;;;;;;;9.00;8.00;;;;;11.70;75.34;101482.19;5056618;28;45376;-63
2021/12/31 08:27:13;;;;;;;;;10.67;9.00;;;;;11.71;75.09;101482.13;5038127;28;46815;-64
2021/12/31 08:29:38;;;;;;;;;7.67;7.67;;;;;11.73;74.86;101487.41;5055984;28;45517;-60
2021/12/31 08:32:04;;;;;;;;;7.33;7.33;;;;;11.67;75.35;101466.38;5055429;28;45326;-61
2021/12/31 08:34:29;;;;;;;;;10.00;8.67;;;;;11.74;74.90;101463.34;5054921;28;45519;-62
2021/12/31 08:36:56;;;;;;;;;7.33;7.33;;;;;11.77;75.00;101476.53;5055523;28;45311;-67
2021/12/31 08:39:21;;;;;;;;;9.00;8.00;;;;;11.75;75.21;101461.56;5055892;28;45324;-60
2021/12/31 08:41:47;;;;;;;;;11.67;9.67;;;;;11.81;74.70;101488.81;5037704;28;45431;-60
2021/12/31 08:44:12;;;;;;;;;13.00;7.33;;;;;11.81;74.64;101488.81;5055143;28;45587;-61
2021/12/31 08:46:38;;;;;;;;;9.33;9.33;;;;;11.80;74.98;101476.41;5055642;28;45353;-58
2021/12/31 08:49:03;;;;;;;;;13.33;11.33;;;;;11.84;74.50;101477.13;5055515;28;45268;-60
2021/12/31 08:51:29;;;;;;;;;10.67;10.67;;;;;11.88;74.22;101485.88;5054751;28;45389;-62
2021/12/31 08:53:55;;;;;;;;;13.00;9.67;;;;;11.89;74.91;101475.13;5056158;28;45530;-61
2021/12/31 08:56:21;;;;;;;;;12.00;12.00;;;;;11.93;74.70;101476.69;5037496;28;46253;-61
2021/12/31 08:58:47;;;;;;;;;15.33;9.00;;;;;11.97;74.36;101490.72;5047169;28;45499;-63
2021/12/31 09:01:13;;;;;;;;;10.67;8.33;;;;;11.99;74.53;101503.09;5044757;28;45513;-62
2021/12/31 09:03:38;;;;;;;;;4.00;4.00;;;;;12.01;74.60;101511.00;5040827;28;45678;-62
2021/12/31 09:06:04;;;;;;;;;11.00;10.33;;;;;12.01;74.13;101511.88;5044186;28;45420;-60
2021/12/31 09:08:29;;;;;;;;;8.67;8.00;;;;;12.02;74.14;101512.72;5055623;28;45457;-64
2021/12/31 09:10:54;;;;;;;;;12.00;9.00;;;;;12.04;74.21;101505.50;5037787;28;45477;-60
2021/12/31 09:13:20;;;;;;;;;8.00;8.00;;;;;12.08;74.14;101523.94;5055778;28;45660;-62
2021/12/31 09:15:47;;;;;;;;;8.00;8.00;;;;;12.14;73.54;101520.16;5055424;28;46066;-64
2021/12/31 09:18:12;;;;;;;;;16.33;11.67;;;;;12.10;74.10;101523.88;5051155;28;45485;-62
2021/12/31 09:20:39;;;;;;;;;14.33;11.33;;;;;12.16;73.85;101517.41;5057909;28;45439;-62
2021/12/31 09:23:06;;;;;;;;;13.00;13.00;;;;;12.16;74.09;101504.94;5058570;28;45608;-63
2021/12/31 09:25:33;;;;;;;;;19.33;14.00;;;;;12.18;73.81;101510.19;5051023;28;45496;-63
2021/12/31 09:27:59;;;;;;;;;14.33;12.67;;;;;12.20;73.59;101514.50;5058097;28;45801;-60
2021/12/31 09:30:28;;;;;;;;;14.33;10.67;;;;;12.20;73.93;101516.31;5058337;28;45413;-58
2021/12/31 09:32:54;;;;;;;;;9.33;9.33;;;;;12.17;73.57;101517.31;5039896;28;45418;-60
2021/12/31 09:35:20;;;;;;;;;11.33;11.33;;;;;12.20;73.79;101513.63;5057642;28;45222;-64
2021/12/31 09:37:45;;;;;;;;;16.00;12.00;;;;;12.17;73.62;101506.66;5057724;28;45494;-65
2021/12/31 09:40:15;;;;;;;;;11.67;10.67;;;;;12.16;73.82;101517.41;5039733;28;45559;-64
2021/12/31 09:42:46;;;;;;;;;14.67;11.67;;;;;12.16;73.76;101523.59;5039717;28;45644;-64
2021/12/31 09:45:16;;;;;;;;;16.33;12.00;;;;;12.24;73.56;101542.78;5056979;28;45489;-63
2021/12/31 09:47:43;;;;;;;;;12.67;10.67;;;;;12.24;73.35;101547.22;5057660;28;45422;-62
2021/12/31 09:50:09;;;;;;;;;15.33;13.67;;;;;12.27;73.39;101555.97;5057312;28;45426;-64
2021/12/31 09:52:36;;;;;;;;;13.67;13.67;;;;;12.27;73.33;101555.09;5054629;28;45606;-62
2021/12/31 09:55:01;;;;;;;;;14.00;11.33;;;;;12.35;73.47;101567.09;5057511;28;45537;-62
2021/12/31 09:57:27;;;;;;;;;13.00;13.00;;;;;12.38;72.96;101572.31;5057616;28;45418;-60
2021/12/31 09:59:54;;;;;;;;;15.00;14.00;;;;;12.36;73.39;101560.81;5057336;28;45469;-63
2021/12/31 10:02:34;;;;;;;;;7.67;6.00;;;;;12.50;73.20;101575.31;5057987;28;45428;-61
2021/12/31 10:05:02;;;;;;;;;15.67;12.33;;;;;12.57;73.30;101566.06;5057607;28;46121;-62
2021/12/31 10:07:33;;;;;;;;;16.00;13.00;;;;;12.64;73.04;101562.19;5058040;28;45715;-62
2021/12/31 10:10:13;;;;;;;;;13.33;12.33;;;;;12.68;72.72;101566.41;5040181;28;45425;-63
2021/12/31 10:12:51;;;;;;;;;13.67;12.67;;;;;12.69;72.15;101576.16;5057979;28;45759;-62
2021/12/31 10:15:24;;;;;;;;;16.67;14.33;;;;;12.79;72.45;101579.25;5039914;28;45643;-65
2021/12/31 10:17:51;;;;;;;;;12.00;9.33;;;;;12.83;72.21;101576.34;5056904;28;45501;-62
2021/12/31 10:20:18;;;;;;;;;13.67;13.67;;;;;12.91;72.13;101584.84;5057279;28;45301;-63
2021/12/31 10:22:45;;;;;;;;;11.00;9.67;;;;;12.98;72.01;101591.59;5057532;28;45604;-61
2021/12/31 10:25:22;;;;;;;;;11.33;9.67;;;;;13.05;71.21;101596.63;5039084;28;45340;-61
2021/12/31 10:27:51;;;;;;;;;11.67;11.67;;;;;13.10;71.63;101589.25;5058385;28;45529;-61
2021/12/31 10:30:22;;;;;;;;;8.33;8.33;;;;;13.14;71.25;101580.13;5056728;28;45510;-62
2021/12/31 10:32:49;;;;;;;;;7.00;7.00;;;;;13.16;70.74;101588.94;5039349;28;45578;-60
2021/12/31 10:35:21;;;;;;;;;7.00;6.67;;;;;13.18;71.42;101608.44;5056807;28;45862;-64
2021/12/31 10:38:01;;;;;;;;;10.33;7.00;;;;;13.17;71.32;101617.38;5052293;28;45418;-61
2021/12/31 10:40:44;;;;;;;;;10.33;7.67;;;;;13.26;71.40;101630.28;5041038;28;45416;-62
2021/12/31 10:43:22;;;;;;;;;9.00;8.00;;;;;13.32;70.53;101646.03;5056383;28;45442;-61
2021/12/31 10:46:03;;;;;;;;;7.00;7.00;;;;;13.39;70.33;101654.56;5056845;28;46077;-62
2021/12/31 10:48:44;;;;;;;;;8.00;8.00;;;;;13.51;70.27;101665.50;5057496;28;45328;-61
2021/12/31 10:51:13;;;;;;;;;4.33;4.33;;;;;13.63;70.48;101665.81;5039198;28;45374;-65
2021/12/31 10:53:39;;;;;;;;;7.67;7.67;;;;;13.73;69.75;101653.72;5058010;28;45278;-62
2021/12/31 10:56:13;;;;;;;;;5.67;5.67;;;;;13.86;69.91;101660.13;5039205;28;46923;-62
2021/12/31 10:58:41;;;;;;;;;9.33;7.67;;;;;13.94;69.60;101643.72;5039941;28;45338;-66
2021/12/31 11:01:12;;;;;;;;;8.67;7.67;;;;;13.93;69.05;101640.13;5055956;28;45407;-59
2021/12/31 11:03:38;;;;;;;;;9.00;7.00;;;;;14.03;68.69;101632.50;5055170;28;45574;-59
2021/12/31 11:06:07;;;;;;;;;7.33;7.33;;;;;14.08;68.59;101644.69;5051637;28;45671;-59
2021/12/31 11:08:33;;;;;;;;;11.00;7.00;;;;;14.15;68.57;101648.75;5047429;28;45417;-58
2021/12/31 11:11:00;;;;;;;;;7.00;3.67;;;;;14.23;68.59;101650.16;5038413;28;45415;-60
2021/12/31 11:13:30;;;;;;;;;9.00;9.00;;;;;14.29;68.47;101641.78;5037222;28;45604;-54
2021/12/31 11:15:58;;;;;;;;;8.33;8.33;;;;;14.34;68.39;101642.41;5037127;28;46176;-58
2021/12/31 11:18:24;;;;;;;;;8.33;8.33;;;;;14.42;68.36;101635.66;5019029;28;45458;-58